Time;durP1;ratioP1;P1;durP2;ratioP2;P2;SDS_P1;SDS_P2;PMS_P1;PMS_P2;Temp;Humidity;BMP_temperature;BMP_pressure;BME280_temperature;BME280_humidity;BME280_pressure;Samples;Min_cycle;Max_cycle;Signal;HPM_P1;HPM_P2
2022/01/04 00:00:41;;;;;;;;;;;;;;;;;;5010263;28;19960;-72
2022/01/04 00:03:08;;;;;;;;;;;;;;;;;;5009281;28;19947;-72
2022/01/04 00:05:35;;;;;;;;;;;;;;;;;;5007448;28;19929;-71
2022/01/04 00:08:04;;;;;;;;;;;;;;;;;;5009117;28;20028;-72
2022/01/04 00:10:32;;;;;;;;;;;;;;;;;;5012688;28;19944;-71
2022/01/04 00:15:44;;;;;;;;;;;;;;;;;;5010968;28;19920;-71
2022/01/04 00:18:15;;;;;;;;;;;;;;;;;;5011056;28;19925;-71
2022/01/04 00:20:42;;;;;;;;;;;;;;;;;;5007459;28;19965;-71
2022/01/04 00:23:09;;;;;;;;;;;;;;;;;;5012150;28;19973;-72
2022/01/04 00:25:36;;;;;;;;;;;;;;;;;;5012349;28;19972;-71
2022/01/04 00:28:07;;;;;;;;;;;;;;;;;;5005580;28;19926;-71
2022/01/04 00:30:33;;;;;;;;;;;;;;;;;;5011370;28;20017;-71
2022/01/04 00:33:02;;;;;;;;;;;;;;;;;;5005733;28;19933;-71
2022/01/04 00:35:29;;;;;;;;;;;;;;;;;;5010325;28;19929;-72
2022/01/04 00:37:57;;;;;;;;;;;;;;;;;;5008547;28;19933;-71
2022/01/04 00:40:23;;;;;;;;;;;;;;;;;;5008429;28;20047;-76
2022/01/04 00:42:50;;;;;;;;;;;;;;;;;;5007426;28;19947;-75
2022/01/04 00:45:17;;;;;;;;;;;;;;;;;;5010477;28;20389;-75
2022/01/04 00:49:09;;;;;;;;;;;;;;;;;;5008507;28;19936;-74
2022/01/04 00:50:31;;;;;;;;;;;;;;;;;;5011849;28;20302;-74
2022/01/04 00:52:58;;;;;;;;;;;;;;;;;;5008409;28;19976;-74
2022/01/04 00:55:25;;;;;;;;;;;;;;;;;;5010056;28;19940;-74
2022/01/04 00:57:52;;;;;;;;;;;;;;;;;;5009981;28;19929;-74
2022/01/04 01:00:19;;;;;;;;;;;;;;;;;;5009905;28;19947;-75
2022/01/04 01:02:46;;;;;;;;;;;;;;;;;;5009831;28;19951;-75
2022/01/04 01:05:13;;;;;;;;;;;;;;;;;;5011605;28;20377;-74
2022/01/04 01:07:40;;;;;;;;;;;;;;;;;;5007068;28;20396;-75
2022/01/04 01:10:21;;;;;;;;;;;;;;;;;;5007421;28;19936;-74
2022/01/04 01:12:48;;;;;;;;;;;;;;;;;;5010135;28;20021;-74
2022/01/04 01:15:15;;;;;;;;;;;;;;;;;;5011162;28;19932;-75
2022/01/04 01:17:42;;;;;;;;;;;;;;;;;;5007626;28;19933;-74
2022/01/04 01:20:09;;;;;;;;;;;;;;;;;;5012368;28;19925;-75
2022/01/04 01:22:36;;;;;;;;;;;;;;;;;;5007125;28;19926;-74
2022/01/04 01:25:03;;;;;;;;;;;;;;;;;;5009951;28;20410;-75
2022/01/04 01:27:30;;;;;;;;;;;;;;;;;;5007513;28;20016;-74
2022/01/04 01:29:57;;;;;;;;;;;;;;;;;;5010405;28;20023;-74
2022/01/04 01:32:24;;;;;;;;;;;;;;;;;;5010594;28;20025;-75
2022/01/04 01:34:51;;;;;;;;;;;;;;;;;;5010452;28;19968;-75
2022/01/04 01:37:18;;;;;;;;;;;;;;;;;;5003960;28;20487;-75
2022/01/04 01:39:45;;;;;;;;;;;;;;;;;;5010746;28;19931;-75
2022/01/04 01:42:12;;;;;;;;;;;;;;;;;;5010726;28;20028;-77
2022/01/04 01:44:39;;;;;;;;;;;;;;;;;;5012767;28;19929;-76
2022/01/04 01:47:06;;;;;;;;;;;;;;;;;;5007850;28;20534;-76
2022/01/04 01:49:33;;;;;;;;;;;;;;;;;;5012587;28;20341;-75
2022/01/04 01:52:00;;;;;;;;;;;;;;;;;;5006871;28;19925;-75
2022/01/04 01:54:27;;;;;;;;;;;;;;;;;;5013126;28;19929;-74
2022/01/04 01:56:54;;;;;;;;;;;;;;;;;;5012746;28;19932;-75
2022/01/04 01:59:21;;;;;;;;;;;;;;;;;;5009692;28;20020;-74
2022/01/04 02:01:48;;;;;;;;;;;;;;;;;;5005535;28;20037;-74
2022/01/04 02:04:15;;;;;;;;;;;;;;;;;;5010661;28;20035;-76
2022/01/04 02:06:41;;;;;;;;;;;;;;;;;;5014197;28;20035;-74
2022/01/04 02:09:08;;;;;;;;;;;;;;;;;;5016735;28;20020;-75
2022/01/04 02:11:35;;;;;;;;;;;;;;;;;;5014868;28;20019;-76
2022/01/04 02:14:02;;;;;;;;;;;;;;;;;;5012238;28;20016;-74
2022/01/04 02:16:29;;;;;;;;;;;;;;;;;;5006091;28;19932;-74
2022/01/04 02:18:56;;;;;;;;;;;;;;;;;;5014839;28;20016;-75
2022/01/04 02:21:23;;;;;;;;;;;;;;;;;;5008278;28;19929;-74
2022/01/04 02:23:50;;;;;;;;;;;;;;;;;;5011065;28;20025;-74
2022/01/04 02:26:17;;;;;;;;;;;;;;;;;;5007238;28;20024;-74
2022/01/04 02:28:44;;;;;;;;;;;;;;;;;;5009201;28;19925;-74
2022/01/04 02:31:11;;;;;;;;;;;;;;;;;;5009557;28;20012;-74
2022/01/04 02:33:40;;;;;;;;;;;;;;;;;;5006866;28;20016;-74
2022/01/04 02:36:07;;;;;;;;;;;;;;;;;;5000558;28;19926;-74
2022/01/04 02:38:34;;;;;;;;;;;;;;;;;;5007767;28;20071;-74
2022/01/04 02:41:01;;;;;;;;;;;;;;;;;;5005497;28;19926;-75
2022/01/04 02:43:28;;;;;;;;;;;;;;;;;;5010801;28;19931;-74
2022/01/04 02:45:55;;;;;;;;;;;;;;;;;;5011191;28;19932;-74
2022/01/04 02:48:22;;;;;;;;;;;;;;;;;;5003260;28;19926;-74
2022/01/04 02:50:50;;;;;;;;;;;;;;;;;;5008769;28;19925;-74
2022/01/04 02:53:17;;;;;;;;;;;;;;;;;;5007616;28;19956;-75
2022/01/04 02:55:45;;;;;;;;;;;;;;;;;;5009607;28;19932;-74
2022/01/04 02:58:12;;;;;;;;;;;;;;;;;;5003943;28;20487;-74
2022/01/04 03:00:39;;;;;;;;;;;;;;;;;;5008898;28;19925;-74
2022/01/04 03:03:06;;;;;;;;;;;;;;;;;;5005682;28;20300;-74
2022/01/04 03:05:33;;;;;;;;;;;;;;;;;;5008551;28;19933;-74
2022/01/04 03:08:00;;;;;;;;;;;;;;;;;;5006246;28;19925;-74
2022/01/04 03:10:27;;;;;;;;;;;;;;;;;;5006109;28;19933;-74
2022/01/04 03:12:54;;;;;;;;;;;;;;;;;;5007470;28;20020;-74
2022/01/04 03:15:21;;;;;;;;;;;;;;;;;;5010710;28;20024;-74
2022/01/04 03:17:48;;;;;;;;;;;;;;;;;;5008104;28;19925;-74
2022/01/04 03:20:15;;;;;;;;;;;;;;;;;;5006618;28;19948;-74
2022/01/04 03:22:41;;;;;;;;;;;;;;;;;;5008467;28;19926;-75
2022/01/04 03:25:08;;;;;;;;;;;;;;;;;;5000349;28;19926;-74
2022/01/04 03:27:35;;;;;;;;;;;;;;;;;;5008307;28;19931;-74
2022/01/04 03:30:02;;;;;;;;;;;;;;;;;;5002753;28;19932;-74
2022/01/04 03:32:29;;;;;;;;;;;;;;;;;;5006952;28;19925;-74
2022/01/04 03:34:56;;;;;;;;;;;;;;;;;;5007542;28;19969;-75
2022/01/04 03:37:23;;;;;;;;;;;;;;;;;;5006120;28;19925;-74
2022/01/04 03:39:50;;;;;;;;;;;;;;;;;;5002961;28;19929;-75
2022/01/04 03:42:17;;;;;;;;;;;;;;;;;;5005808;28;20375;-74
2022/01/04 03:44:44;;;;;;;;;;;;;;;;;;5008650;28;19933;-74
2022/01/04 03:47:11;;;;;;;;;;;;;;;;;;5008728;28;20020;-74
2022/01/04 03:49:38;;;;;;;;;;;;;;;;;;5006899;28;19932;-74
2022/01/04 03:52:05;;;;;;;;;;;;;;;;;;5008325;28;19925;-75
2022/01/04 03:54:32;;;;;;;;;;;;;;;;;;5006191;28;19926;-73
2022/01/04 03:56:59;;;;;;;;;;;;;;;;;;5007207;28;19934;-74
2022/01/04 03:59:26;;;;;;;;;;;;;;;;;;5003386;28;19944;-74
2022/01/04 04:01:53;;;;;;;;;;;;;;;;;;5000206;28;20044;-74
2022/01/04 04:04:20;;;;;;;;;;;;;;;;;;5006016;28;19926;-73
2022/01/04 04:06:47;;;;;;;;;;;;;;;;;;5007417;28;20032;-75
2022/01/04 04:09:14;;;;;;;;;;;;;;;;;;5012718;28;19949;-75
2022/01/04 04:11:41;;;;;;;;;;;;;;;;;;5008985;28;19929;-74
2022/01/04 04:14:08;;;;;;;;;;;;;;;;;;5009737;28;19930;-73
2022/01/04 04:16:35;;;;;;;;;;;;;;;;;;5013771;28;20023;-76
2022/01/04 04:19:02;;;;;;;;;;;;;;;;;;5016897;28;20030;-75
2022/01/04 04:21:29;;;;;;;;;;;;;;;;;;5014795;28;19929;-77
2022/01/04 04:23:55;;;;;;;;;;;;;;;;;;5012715;28;19926;-75
2022/01/04 04:26:22;;;;;;;;;;;;;;;;;;5010947;28;19925;-75
2022/01/04 04:28:49;;;;;;;;;;;;;;;;;;5011807;28;19926;-75
2022/01/04 04:31:16;;;;;;;;;;;;;;;;;;5015230;28;20378;-74
2022/01/04 04:33:43;;;;;;;;;;;;;;;;;;5012889;28;19926;-74
2022/01/04 04:36:10;;;;;;;;;;;;;;;;;;5013623;28;20024;-74
2022/01/04 04:38:37;;;;;;;;;;;;;;;;;;5008851;28;19925;-73
2022/01/04 04:41:07;;;;;;;;;;;;;;;;;;5012353;28;19925;-74
2022/01/04 04:43:34;;;;;;;;;;;;;;;;;;5008682;28;20355;-74
2022/01/04 04:46:01;;;;;;;;;;;;;;;;;;5012438;28;19926;-74
2022/01/04 04:48:28;;;;;;;;;;;;;;;;;;5010138;28;19934;-73
2022/01/04 04:50:55;;;;;;;;;;;;;;;;;;5012408;28;19948;-74
2022/01/04 04:53:22;;;;;;;;;;;;;;;;;;5007902;28;20269;-74
2022/01/04 04:55:49;;;;;;;;;;;;;;;;;;5009629;28;19929;-74
2022/01/04 04:58:16;;;;;;;;;;;;;;;;;;5008252;28;19926;-74
2022/01/04 05:00:43;;;;;;;;;;;;;;;;;;5012053;28;19996;-74
2022/01/04 05:03:10;;;;;;;;;;;;;;;;;;5009355;28;19926;-74
2022/01/04 05:05:37;;;;;;;;;;;;;;;;;;5008322;28;19932;-74
2022/01/04 05:08:04;;;;;;;;;;;;;;;;;;5012220;28;19925;-74
2022/01/04 05:10:31;;;;;;;;;;;;;;;;;;5011903;28;19925;-75
2022/01/04 05:12:58;;;;;;;;;;;;;;;;;;5011586;28;19932;-76
2022/01/04 05:15:25;;;;;;;;;;;;;;;;;;5009216;28;19926;-74
2022/01/04 05:17:52;;;;;;;;;;;;;;;;;;5010475;28;20303;-75
2022/01/04 05:20:19;;;;;;;;;;;;;;;;;;5011434;28;20303;-75
2022/01/04 05:22:46;;;;;;;;;;;;;;;;;;5008168;28;20349;-74
2022/01/04 05:25:13;;;;;;;;;;;;;;;;;;5008620;28;19925;-74
2022/01/04 05:27:40;;;;;;;;;;;;;;;;;;5006233;28;19932;-74
2022/01/04 05:30:07;;;;;;;;;;;;;;;;;;5009268;28;20029;-74
2022/01/04 05:32:34;;;;;;;;;;;;;;;;;;5010043;28;19971;-74
2022/01/04 05:35:01;;;;;;;;;;;;;;;;;;5010030;28;19936;-75
2022/01/04 05:37:28;;;;;;;;;;;;;;;;;;5009334;28;20435;-76
2022/01/04 05:39:55;;;;;;;;;;;;;;;;;;5011673;28;20300;-75
2022/01/04 05:42:21;;;;;;;;;;;;;;;;;;5010070;28;19953;-76
2022/01/04 05:44:48;;;;;;;;;;;;;;;;;;5009570;28;19933;-75
2022/01/04 05:47:15;;;;;;;;;;;;;;;;;;5010364;28;19925;-74
2022/01/04 05:49:42;;;;;;;;;;;;;;;;;;5007950;28;19947;-74
2022/01/04 05:52:09;;;;;;;;;;;;;;;;;;5002640;28;20381;-75
2022/01/04 05:54:36;;;;;;;;;;;;;;;;;;5008549;28;19932;-74
2022/01/04 05:57:03;;;;;;;;;;;;;;;;;;5009183;28;19933;-74
2022/01/04 05:59:30;;;;;;;;;;;;;;;;;;5008741;28;20024;-74
2022/01/04 06:01:57;;;;;;;;;;;;;;;;;;5009934;28;20372;-74
2022/01/04 06:04:24;;;;;;;;;;;;;;;;;;5008790;28;19925;-74
2022/01/04 06:06:51;;;;;;;;;;;;;;;;;;5010266;28;19929;-74
2022/01/04 06:09:23;;;;;;;;;;;;;;;;;;5008708;28;19932;-74
2022/01/04 06:12:02;;;;;;;;;;;;;;;;;;5006874;28;20308;-74
2022/01/04 06:17:13;;;;;;;;;;;;;;;;;;5009323;28;19920;-71
2022/01/04 06:19:40;;;;;;;;;;;;;;;;;;5006513;28;19936;-72
2022/01/04 06:22:07;;;;;;;;;;;;;;;;;;5006376;28;19936;-72
2022/01/04 06:24:36;;;;;;;;;;;;;;;;;;5012506;28;20005;-73
2022/01/04 06:27:03;;;;;;;;;;;;;;;;;;5009452;28;19941;-73
2022/01/04 06:29:33;;;;;;;;;;;;;;;;;;5010692;28;19925;-73
2022/01/04 06:32:03;;;;;;;;;;;;;;;;;;5011203;28;19932;-73
2022/01/04 06:34:30;;;;;;;;;;;;;;;;;;5007330;28;19932;-72
2022/01/04 06:36:57;;;;;;;;;;;;;;;;;;5009562;28;19936;-73
2022/01/04 06:39:24;;;;;;;;;;;;;;;;;;5007832;28;20016;-72
2022/01/04 06:41:51;;;;;;;;;;;;;;;;;;5009729;28;20262;-73
2022/01/04 06:44:18;;;;;;;;;;;;;;;;;;5007030;28;20039;-72
2022/01/04 06:46:45;;;;;;;;;;;;;;;;;;5008180;28;20384;-73
2022/01/04 06:49:13;;;;;;;;;;;;;;;;;;5009892;28;19930;-73
2022/01/04 06:51:40;;;;;;;;;;;;;;;;;;5007675;28;19933;-76
2022/01/04 06:54:07;;;;;;;;;;;;;;;;;;5011797;28;19937;-75
2022/01/04 06:56:34;;;;;;;;;;;;;;;;;;5012564;28;20008;-73
2022/01/04 06:59:01;;;;;;;;;;;;;;;;;;5014412;28;19968;-72
2022/01/04 07:01:28;;;;;;;;;;;;;;;;;;5011384;28;20024;-73
2022/01/04 07:03:55;;;;;;;;;;;;;;;;;;5005692;28;19965;-72
2022/01/04 07:06:22;;;;;;;;;;;;;;;;;;5004221;28;19931;-72
2022/01/04 07:08:49;;;;;;;;;;;;;;;;;;5009863;28;19926;-72
2022/01/04 07:11:16;;;;;;;;;;;;;;;;;;5000641;28;19926;-72
2022/01/04 07:13:43;;;;;;;;;;;;;;;;;;5006220;28;19975;-72
2022/01/04 07:16:10;;;;;;;;;;;;;;;;;;5006191;28;20468;-72
2022/01/04 07:18:37;;;;;;;;;;;;;;;;;;5004275;28;19926;-72
2022/01/04 07:21:04;;;;;;;;;;;;;;;;;;5009760;28;19929;-72
2022/01/04 07:23:31;;;;;;;;;;;;;;;;;;5008393;28;19932;-72
2022/01/04 07:25:58;;;;;;;;;;;;;;;;;;5006360;28;19926;-72
2022/01/04 07:28:25;;;;;;;;;;;;;;;;;;5005444;28;19988;-72
2022/01/04 07:30:52;;;;;;;;;;;;;;;;;;5008748;28;19980;-73
2022/01/04 07:33:19;;;;;;;;;;;;;;;;;;5005411;28;19961;-72
2022/01/04 07:35:46;;;;;;;;;;;;;;;;;;5007270;28;19925;-72
2022/01/04 07:38:13;;;;;;;;;;;;;;;;;;5006846;28;19925;-72
2022/01/04 07:40:40;;;;;;;;;;;;;;;;;;5008276;28;19935;-72
2022/01/04 07:43:08;;;;;;;;;;;;;;;;;;5007121;28;19972;-71
2022/01/04 07:45:36;;;;;;;;;;;;;;;;;;5008532;28;20011;-72
2022/01/04 07:48:03;;;;;;;;;;;;;;;;;;5007768;28;19926;-73
2022/01/04 07:50:30;;;;;;;;;;;;;;;;;;5011124;28;20419;-73
2022/01/04 07:52:57;;;;;;;;;;;;;;;;;;5009209;28;20077;-73
2022/01/04 07:55:24;;;;;;;;;;;;;;;;;;5012604;28;19925;-72
2022/01/04 07:57:51;;;;;;;;;;;;;;;;;;5008744;28;19934;-73
2022/01/04 08:00:20;;;;;;;;;;;;;;;;;;5010110;28;20257;-73
2022/01/04 08:02:56;;;;;;;;;;;;;;;;;;5009875;28;20002;-73
2022/01/04 08:05:23;;;;;;;;;;;;;;;;;;5010540;28;19925;-72
2022/01/04 08:07:50;;;;;;;;;;;;;;;;;;5012168;28;20045;-73
2022/01/04 08:10:17;;;;;;;;;;;;;;;;;;5010557;28;19931;-72
2022/01/04 08:12:44;;;;;;;;;;;;;;;;;;5012626;28;19926;-74
2022/01/04 08:15:11;;;;;;;;;;;;;;;;;;5011372;28;19925;-74
2022/01/04 08:17:38;;;;;;;;;;;;;;;;;;5003225;28;19940;-75
2022/01/04 08:20:05;;;;;;;;;;;;;;;;;;5011413;28;19976;-74
2022/01/04 08:22:33;;;;;;;;;;;;;;;;;;5011402;28;19925;-73
2022/01/04 08:25:01;;;;;;;;;;;;;;;;;;5008299;28;19961;-71
2022/01/04 08:27:28;;;;;;;;;;;;;;;;;;5003764;28;19933;-72
2022/01/04 08:29:55;;;;;;;;;;;;;;;;;;5010417;28;19980;-72
2022/01/04 08:32:22;;;;;;;;;;;;;;;;;;5012299;28;19935;-72
2022/01/04 08:34:48;;;;;;;;;;;;;;;;;;5010762;28;19973;-71
2022/01/04 08:37:15;;;;;;;;;;;;;;;;;;5011374;28;19932;-71
2022/01/04 08:39:42;;;;;;;;;;;;;;;;;;5005847;28;19925;-71
2022/01/04 08:42:10;;;;;;;;;;;;;;;;;;5009919;28;19925;-71
2022/01/04 08:44:39;;;;;;;;;;;;;;;;;;5004694;28;20334;-71
2022/01/04 08:47:06;;;;;;;;;;;;;;;;;;5000729;28;19926;-71
2022/01/04 08:49:34;;;;;;;;;;;;;;;;;;5004837;28;19949;-73
2022/01/04 08:52:01;;;;;;;;;;;;;;;;;;5004851;28;19925;-71
2022/01/04 08:54:28;;;;;;;;;;;;;;;;;;5005558;28;19932;-71
2022/01/04 08:56:55;;;;;;;;;;;;;;;;;;5007848;28;20409;-71
2022/01/04 08:59:22;;;;;;;;;;;;;;;;;;5005752;28;19933;-72
2022/01/04 09:01:49;;;;;;;;;;;;;;;;;;5003632;28;19925;-70
2022/01/04 09:04:16;;;;;;;;;;;;;;;;;;5009909;28;19926;-71
2022/01/04 09:06:43;;;;;;;;;;;;;;;;;;5007001;28;19933;-71
2022/01/04 09:09:10;;;;;;;;;;;;;;;;;;5009299;28;19932;-69
2022/01/04 09:11:37;;;;;;;;;;;;;;;;;;5004854;28;19925;-70
2022/01/04 09:14:22;;;;;;;;;;;;;;;;;;5007883;28;19940;-70
2022/01/04 09:19:33;;;;;;;;;;;;;;;;;;5004440;28;20335;-69
2022/01/04 09:22:00;;;;;;;;;;;;;;;;;;5009285;28;19933;-71
2022/01/04 09:24:28;;;;;;;;;;;;;;;;;;5007852;28;19925;-71
2022/01/04 09:26:55;;;;;;;;;;;;;;;;;;5004685;28;20031;-71
2022/01/04 09:29:23;;;;;;;;;;;;;;;;;;5005052;28;19926;-71
2022/01/04 09:31:50;;;;;;;;;;;;;;;;;;5000869;28;20016;-71
2022/01/04 09:34:16;;;;;;;;;;;;;;;;;;5007973;28;19940;-71
2022/01/04 09:36:43;;;;;;;;;;;;;;;;;;5009540;28;19933;-71
2022/01/04 09:39:10;;;;;;;;;;;;;;;;;;5006588;28;19929;-71
2022/01/04 09:41:37;;;;;;;;;;;;;;;;;;5003198;28;19933;-72
2022/01/04 09:44:04;;;;;;;;;;;;;;;;;;5002326;28;20012;-71
2022/01/04 09:46:31;;;;;;;;;;;;;;;;;;5006314;28;19935;-71
2022/01/04 09:48:58;;;;;;;;;;;;;;;;;;5004110;28;19929;-71
2022/01/04 09:51:25;;;;;;;;;;;;;;;;;;5007964;28;20307;-71
2022/01/04 09:53:52;;;;;;;;;;;;;;;;;;5006834;28;20393;-71
2022/01/04 09:56:19;;;;;;;;;;;;;;;;;;5003630;28;19926;-71
2022/01/04 09:58:46;;;;;;;;;;;;;;;;;;5004840;28;19925;-71
2022/01/04 10:01:13;;;;;;;;;;;;;;;;;;5009343;28;19929;-71
2022/01/04 10:03:40;;;;;;;;;;;;;;;;;;5005490;28;19925;-71
2022/01/04 10:06:14;;;;;;;;;;;;;;;;;;5010315;28;19925;-71
2022/01/04 10:08:41;;;;;;;;;;;;;;;;;;5009707;28;20004;-72
2022/01/04 10:11:08;;;;;;;;;;;;;;;;;;5001718;28;20396;-71
2022/01/04 10:13:35;;;;;;;;;;;;;;;;;;5005691;28;19944;-71
2022/01/04 10:16:03;;;;;;;;;;;;;;;;;;5003502;28;19929;-71
2022/01/04 10:18:30;;;;;;;;;;;;;;;;;;5007035;28;19996;-72
2022/01/04 10:20:57;;;;;;;;;;;;;;;;;;5005104;28;20407;-71
2022/01/04 10:23:25;;;;;;;;;;;;;;;;;;5002269;28;19929;-71
2022/01/04 10:25:52;;;;;;;;;;;;;;;;;;5005884;28;20381;-71
2022/01/04 10:28:19;;;;;;;;;;;;;;;;;;5002469;28;19925;-71
2022/01/04 10:30:46;;;;;;;;;;;;;;;;;;5003014;28;19926;-72
2022/01/04 10:33:13;;;;;;;;;;;;;;;;;;5007306;28;20012;-70
2022/01/04 10:35:40;;;;;;;;;;;;;;;;;;5010365;28;19925;-71
2022/01/04 10:38:07;;;;;;;;;;;;;;;;;;5006819;28;19925;-72
2022/01/04 10:40:34;;;;;;;;;;;;;;;;;;5011587;28;19934;-72
2022/01/04 10:43:01;;;;;;;;;;;;;;;;;;5008224;28;19925;-72
2022/01/04 10:45:29;;;;;;;;;;;;;;;;;;5008877;28;20476;-72
2022/01/04 10:47:57;;;;;;;;;;;;;;;;;;5005204;28;20455;-72
2022/01/04 10:50:24;;;;;;;;;;;;;;;;;;5005798;28;20277;-71
2022/01/04 10:52:51;;;;;;;;;;;;;;;;;;5004816;28;20193;-72
2022/01/04 10:55:18;;;;;;;;;;;;;;;;;;5007075;28;19932;-73
2022/01/04 10:57:45;;;;;;;;;;;;;;;;;;5003556;28;19944;-73
2022/01/04 11:00:12;;;;;;;;;;;;;;;;;;5007197;28;19929;-75
2022/01/04 11:02:39;;;;;;;;;;;;;;;;;;5005167;28;19925;-73
2022/01/04 11:05:06;;;;;;;;;;;;;;;;;;5007463;28;20019;-73
2022/01/04 11:07:33;;;;;;;;;;;;;;;;;;4998377;28;19931;-74
2022/01/04 11:10:00;;;;;;;;;;;;;;;;;;5008739;28;19925;-75
2022/01/04 11:12:27;;;;;;;;;;;;;;;;;;5005378;28;19933;-74
2022/01/04 11:14:54;;;;;;;;;;;;;;;;;;5009745;28;20020;-74
2022/01/04 11:17:21;;;;;;;;;;;;;;;;;;5008815;28;19926;-73
2022/01/04 11:19:48;;;;;;;;;;;;;;;;;;5008451;28;20016;-74
2022/01/04 11:22:15;;;;;;;;;;;;;;;;;;5007218;28;19925;-73
2022/01/04 11:24:46;;;;;;;;;;;;;;;;;;5011510;28;20016;-74
2022/01/04 11:27:13;;;;;;;;;;;;;;;;;;5011877;28;19984;-73
2022/01/04 11:29:40;;;;;;;;;;;;;;;;;;5013382;28;19947;-74
2022/01/04 11:32:08;;;;;;;;;;;;;;;;;;5001521;28;19933;-74
2022/01/04 11:34:35;;;;;;;;;;;;;;;;;;4999941;28;19936;-74
2022/01/04 11:37:02;;;;;;;;;;;;;;;;;;5005961;28;20359;-74
2022/01/04 11:39:29;;;;;;;;;;;;;;;;;;5007823;28;20341;-74
2022/01/04 11:41:56;;;;;;;;;;;;;;;;;;5008156;28;19979;-72
2022/01/04 11:44:23;;;;;;;;;;;;;;;;;;5009964;28;19925;-74
2022/01/04 11:46:50;;;;;;;;;;;;;;;;;;5008410;28;19948;-74
2022/01/04 11:49:17;;;;;;;;;;;;;;;;;;5012645;28;19940;-73
2022/01/04 11:51:44;;;;;;;;;;;;;;;;;;5016262;28;19931;-73
2022/01/04 11:54:11;;;;;;;;;;;;;;;;;;5010897;28;19925;-74
2022/01/04 11:56:38;;;;;;;;;;;;;;;;;;5007152;28;20115;-74
2022/01/04 11:59:05;;;;;;;;;;;;;;;;;;5007230;28;19933;-72
2022/01/04 12:01:32;;;;;;;;;;;;;;;;;;5002991;28;19932;-74
2022/01/04 12:03:59;;;;;;;;;;;;;;;;;;5007491;28;19941;-74
2022/01/04 12:06:26;;;;;;;;;;;;;;;;;;5007222;28;19929;-74
2022/01/04 12:08:54;;;;;;;;;;;;;;;;;;5010128;28;19932;-74
2022/01/04 12:11:21;;;;;;;;;;;;;;;;;;5009088;28;20431;-74
2022/01/04 12:13:48;;;;;;;;;;;;;;;;;;5009712;28;20016;-73
2022/01/04 12:16:15;;;;;;;;;;;;;;;;;;5010193;28;20020;-73
2022/01/04 12:18:42;;;;;;;;;;;;;;;;;;5009250;28;19969;-74
2022/01/04 12:21:09;;;;;;;;;;;;;;;;;;5012842;28;19980;-75
2022/01/04 12:23:36;;;;;;;;;;;;;;;;;;5010116;28;19932;-74
2022/01/04 12:26:03;;;;;;;;;;;;;;;;;;5013489;28;19932;-73
2022/01/04 12:28:30;;;;;;;;;;;;;;;;;;5013858;28;19926;-74
2022/01/04 12:30:57;;;;;;;;;;;;;;;;;;5010620;28;20012;-73
2022/01/04 12:33:24;;;;;;;;;;;;;;;;;;5005813;28;19929;-74
2022/01/04 12:35:50;;;;;;;;;;;;;;;;;;5012246;28;19932;-74
2022/01/04 12:38:17;;;;;;;;;;;;;;;;;;5010255;28;20048;-73
2022/01/04 12:40:46;;;;;;;;;;;;;;;;;;5007605;28;19932;-73
2022/01/04 12:43:13;;;;;;;;;;;;;;;;;;4999693;28;19933;-72
2022/01/04 12:45:45;;;;;;;;;;;;;;;;;;5004078;28;19925;-73
2022/01/04 12:48:14;;;;;;;;;;;;;;;;;;5006888;28;19930;-74
2022/01/04 12:50:41;;;;;;;;;;;;;;;;;;5006297;28;19926;-75
2022/01/04 12:53:08;;;;;;;;;;;;;;;;;;5010049;28;19930;-73
2022/01/04 12:55:37;;;;;;;;;;;;;;;;;;5010310;28;20388;-73
2022/01/04 12:58:05;;;;;;;;;;;;;;;;;;5007716;28;19933;-73
2022/01/04 13:00:33;;;;;;;;;;;;;;;;;;5003285;28;19930;-73
2022/01/04 13:03:01;;;;;;;;;;;;;;;;;;5006004;28;19932;-74
2022/01/04 13:05:29;;;;;;;;;;;;;;;;;;5012981;28;19926;-75
2022/01/04 13:07:57;;;;;;;;;;;;;;;;;;5003507;28;20605;-74
2022/01/04 13:10:27;;;;;;;;;;;;;;;;;;4995544;28;19939;-73
2022/01/04 13:12:56;;;;;;;;;;;;;;;;;;4998340;28;20438;-73
2022/01/04 13:15:24;;;;;;;;;;;;;;;;;;4997622;28;20004;-73
2022/01/04 13:17:51;;;;;;;;;;;;;;;;;;5003783;28;19932;-73
2022/01/04 13:20:18;;;;;;;;;;;;;;;;;;5005574;28;19926;-73
2022/01/04 13:22:45;;;;;;;;;;;;;;;;;;5006014;28;20013;-72
2022/01/04 13:25:12;;;;;;;;;;;;;;;;;;5006745;28;20393;-72
2022/01/04 13:27:39;;;;;;;;;;;;;;;;;;5004230;28;20020;-72
2022/01/04 13:30:05;;;;;;;;;;;;;;;;;;5007931;28;19929;-72
2022/01/04 13:32:32;;;;;;;;;;;;;;;;;;5007827;28;19933;-71
2022/01/04 13:34:59;;;;;;;;;;;;;;;;;;5010379;28;20056;-72
2022/01/04 13:37:26;;;;;;;;;;;;;;;;;;5006734;28;19964;-76
2022/01/04 13:39:53;;;;;;;;;;;;;;;;;;5006776;28;20008;-73
2022/01/04 13:42:20;;;;;;;;;;;;;;;;;;5007800;28;19937;-72
2022/01/04 13:44:47;;;;;;;;;;;;;;;;;;5004611;28;19933;-71
2022/01/04 13:47:14;;;;;;;;;;;;;;;;;;5003638;28;19999;-72
2022/01/04 13:49:41;;;;;;;;;;;;;;;;;;5008509;28;19926;-73
2022/01/04 13:52:08;;;;;;;;;;;;;;;;;;5009307;28;20369;-72
2022/01/04 13:54:35;;;;;;;;;;;;;;;;;;5007659;28;20337;-72
2022/01/04 13:57:02;;;;;;;;;;;;;;;;;;5006211;28;19934;-73
2022/01/04 13:59:29;;;;;;;;;;;;;;;;;;5010658;28;19926;-72
2022/01/04 14:01:56;;;;;;;;;;;;;;;;;;5011488;28;19932;-73
2022/01/04 14:04:23;;;;;;;;;;;;;;;;;;5007692;28;19985;-73
2022/01/04 14:06:50;;;;;;;;;;;;;;;;;;5009914;28;19926;-76
2022/01/04 14:09:17;;;;;;;;;;;;;;;;;;5012122;28;19929;-79
2022/01/04 14:11:44;;;;;;;;;;;;;;;;;;5009575;28;20024;-71
2022/01/04 14:14:11;;;;;;;;;;;;;;;;;;5006364;28;19925;-71
2022/01/04 14:16:38;;;;;;;;;;;;;;;;;;4999975;28;19925;-72
2022/01/04 14:19:05;;;;;;;;;;;;;;;;;;5007378;28;19949;-73
2022/01/04 14:21:32;;;;;;;;;;;;;;;;;;5004481;28;20081;-71
2022/01/04 14:23:59;;;;;;;;;;;;;;;;;;5004872;28;20380;-73
2022/01/04 14:26:27;;;;;;;;;;;;;;;;;;5005169;28;19944;-73
2022/01/04 14:28:54;;;;;;;;;;;;;;;;;;5007893;28;19931;-73
2022/01/04 14:31:21;;;;;;;;;;;;;;;;;;5004102;28;19957;-74
2022/01/04 14:33:48;;;;;;;;;;;;;;;;;;5004784;28;19933;-73
2022/01/04 14:36:15;;;;;;;;;;;;;;;;;;5004170;28;19932;-73
2022/01/04 14:38:43;;;;;;;;;;;;;;;;;;5010512;28;19971;-73
2022/01/04 14:41:10;;;;;;;;;;;;;;;;;;5003403;28;19934;-74
2022/01/04 14:43:39;;;;;;;;;;;;;;;;;;5007703;28;20451;-71
2022/01/04 14:46:05;;;;;;;;;;;;;;;;;;5004354;28;19929;-73
2022/01/04 14:48:32;;;;;;;;;;;;;;;;;;5005742;28;20032;-72
2022/01/04 14:51:00;;;;;;;;;;;;;;;;;;5007607;28;19932;-72
2022/01/04 14:53:27;;;;;;;;;;;;;;;;;;5000275;28;19980;-71
2022/01/04 14:55:54;;;;;;;;;;;;;;;;;;5004652;28;20008;-71
2022/01/04 14:58:21;;;;;;;;;;;;;;;;;;5006280;28;20430;-73
2022/01/04 15:00:48;;;;;;;;;;;;;;;;;;5005297;28;20248;-73
2022/01/04 15:03:15;;;;;;;;;;;;;;;;;;5005541;28;19932;-74
2022/01/04 15:05:42;;;;;;;;;;;;;;;;;;5006628;28;20008;-73
2022/01/04 15:08:09;;;;;;;;;;;;;;;;;;5007464;28;19936;-72
2022/01/04 15:10:36;;;;;;;;;;;;;;;;;;5004931;28;20461;-72
2022/01/04 15:13:04;;;;;;;;;;;;;;;;;;5003936;28;19925;-72
2022/01/04 15:15:31;;;;;;;;;;;;;;;;;;5004116;28;19929;-71
2022/01/04 15:17:58;;;;;;;;;;;;;;;;;;5005711;28;19926;-73
2022/01/04 15:20:25;;;;;;;;;;;;;;;;;;5007576;28;19935;-74
2022/01/04 15:22:52;;;;;;;;;;;;;;;;;;5002986;28;20016;-73
2022/01/04 15:25:23;;;;;;;;;;;;;;;;;;5005906;28;20024;-73
2022/01/04 15:27:53;;;;;;;;;;;;;;;;;;5001350;28;20436;-73
2022/01/04 15:30:20;;;;;;;;;;;;;;;;;;5004643;28;20301;-73
2022/01/04 15:32:47;;;;;;;;;;;;;;;;;;5005951;28;19930;-73
2022/01/04 15:35:14;;;;;;;;;;;;;;;;;;5003660;28;19936;-74
2022/01/04 15:37:40;;;;;;;;;;;;;;;;;;5003490;28;19926;-73
2022/01/04 15:40:10;;;;;;;;;;;;;;;;;;5007395;28;19925;-74
2022/01/04 15:42:37;;;;;;;;;;;;;;;;;;5000942;28;20354;-75
2022/01/04 15:45:05;;;;;;;;;;;;;;;;;;5004595;28;19930;-76
2022/01/04 15:47:32;;;;;;;;;;;;;;;;;;5001683;28;19988;-71
2022/01/04 15:49:59;;;;;;;;;;;;;;;;;;5005998;28;19967;-72
2022/01/04 15:52:26;;;;;;;;;;;;;;;;;;5004357;28;19925;-72
2022/01/04 15:54:53;;;;;;;;;;;;;;;;;;5004748;28;19929;-72
2022/01/04 15:57:20;;;;;;;;;;;;;;;;;;5006611;28;19933;-73
2022/01/04 15:59:46;;;;;;;;;;;;;;;;;;5005736;28;19961;-71
2022/01/04 16:02:14;;;;;;;;;;;;;;;;;;5007437;28;20012;-73
2022/01/04 16:04:41;;;;;;;;;;;;;;;;;;5005564;28;19926;-72
2022/01/04 16:07:08;;;;;;;;;;;;;;;;;;5006958;28;20008;-73
2022/01/04 16:09:35;;;;;;;;;;;;;;;;;;5007220;28;20307;-72
2022/01/04 16:12:02;;;;;;;;;;;;;;;;;;5005048;28;19929;-72
2022/01/04 16:14:29;;;;;;;;;;;;;;;;;;5011389;28;19931;-72
2022/01/04 16:17:05;;;;;;;;;;;;;;;;;;5011600;28;20334;-73
2022/01/04 16:22:16;;;;;;;;;;;;;;;;;;5009258;28;20062;-72
2022/01/04 16:24:44;;;;;;;;;;;;;;;;;;5009898;28;19932;-72
2022/01/04 16:27:11;;;;;;;;;;;;;;;;;;5013884;28;19929;-73
2022/01/04 16:29:38;;;;;;;;;;;;;;;;;;5010578;28;19926;-73
2022/01/04 16:32:05;;;;;;;;;;;;;;;;;;5009345;28;19929;-72
2022/01/04 16:34:31;;;;;;;;;;;;;;;;;;5008067;28;19932;-72
2022/01/04 16:36:58;;;;;;;;;;;;;;;;;;5006600;28;19929;-72
2022/01/04 16:39:25;;;;;;;;;;;;;;;;;;5008604;28;19930;-72
2022/01/04 16:41:53;;;;;;;;;;;;;;;;;;5008971;28;20289;-73
2022/01/04 16:44:19;;;;;;;;;;;;;;;;;;5007504;28;19929;-72
2022/01/04 16:46:47;;;;;;;;;;;;;;;;;;5007343;28;19969;-72
2022/01/04 16:49:14;;;;;;;;;;;;;;;;;;5008416;28;19929;-71
2022/01/04 16:51:40;;;;;;;;;;;;;;;;;;5009498;28;20519;-72
2022/01/04 16:54:07;;;;;;;;;;;;;;;;;;5006645;28;19932;-73
2022/01/04 16:56:35;;;;;;;;;;;;;;;;;;5007840;28;19929;-74